sensor_id;sensor_type;location;lat;lon;timestamp;temperature;humidity
69208;SHT31;70114;47.690;8.898;2023-07-28T00:02:05;17.81;73.50
69208;SHT31;70114;47.690;8.898;2023-07-28T00:04:30;17.83;73.42
69208;SHT31;70114;47.690;8.898;2023-07-28T00:06:56;17.70;73.93
69208;SHT31;70114;47.690;8.898;2023-07-28T00:09:21;17.73;73.55
69208;SHT31;70114;47.690;8.898;2023-07-28T00:11:48;17.71;73.39
69208;SHT31;70114;47.690;8.898;2023-07-28T00:14:13;17.69;73.86
69208;SHT31;70114;47.690;8.898;2023-07-28T00:16:39;17.62;74.41
69208;SHT31;70114;47.690;8.898;2023-07-28T00:19:05;17.57;74.26
69208;SHT31;70114;47.690;8.898;2023-07-28T00:21:30;17.59;74.51
69208;SHT31;70114;47.690;8.898;2023-07-28T00:23:55;17.47;74.44
69208;SHT31;70114;47.690;8.898;2023-07-28T00:26:21;17.54;73.89
69208;SHT31;70114;47.690;8.898;2023-07-28T00:28:46;17.47;74.95
69208;SHT31;70114;47.690;8.898;2023-07-28T00:31:12;17.49;74.48
69208;SHT31;70114;47.690;8.898;2023-07-28T00:33:37;17.38;75.14
69208;SHT31;70114;47.690;8.898;2023-07-28T00:36:03;17.39;74.98
69208;SHT31;70114;47.690;8.898;2023-07-28T00:38:28;17.45;74.74
69208;SHT31;70114;47.690;8.898;2023-07-28T00:40:54;17.42;74.52
69208;SHT31;70114;47.690;8.898;2023-07-28T00:43:19;17.19;75.59
69208;SHT31;70114;47.690;8.898;2023-07-28T00:45:45;17.35;74.59
69208;SHT31;70114;47.690;8.898;2023-07-28T00:48:12;17.22;74.92
69208;SHT31;70114;47.690;8.898;2023-07-28T00:50:41;17.23;74.51
69208;SHT31;70114;47.690;8.898;2023-07-28T00:53:07;17.28;74.32
69208;SHT31;70114;47.690;8.898;2023-07-28T00:55:32;17.18;74.69
69208;SHT31;70114;47.690;8.898;2023-07-28T00:57:58;17.05;75.33
69208;SHT31;70114;47.690;8.898;2023-07-28T01:00:24;17.12;74.90
69208;SHT31;70114;47.690;8.898;2023-07-28T01:02:49;17.01;75.25
69208;SHT31;70114;47.690;8.898;2023-07-28T01:05:15;17.10;74.87
69208;SHT31;70114;47.690;8.898;2023-07-28T01:10:18;16.92;75.67
69208;SHT31;70114;47.690;8.898;2023-07-28T01:12:46;17.05;74.86
69208;SHT31;70114;47.690;8.898;2023-07-28T01:15:12;17.05;74.81
69208;SHT31;70114;47.690;8.898;2023-07-28T01:17:39;17.07;74.88
69208;SHT31;70114;47.690;8.898;2023-07-28T01:20:05;17.01;74.80
69208;SHT31;70114;47.690;8.898;2023-07-28T01:27:35;17.01;75.04
69208;SHT31;70114;47.690;8.898;2023-07-28T01:30:03;16.94;74.91
69208;SHT31;70114;47.690;8.898;2023-07-28T01:32:28;16.98;74.50
69208;SHT31;70114;47.690;8.898;2023-07-28T01:34:53;16.80;75.58
69208;SHT31;70114;47.690;8.898;2023-07-28T01:37:19;16.85;75.01
69208;SHT31;70114;47.690;8.898;2023-07-28T01:39:44;16.84;75.44
69208;SHT31;70114;47.690;8.898;2023-07-28T01:42:10;16.81;75.59
69208;SHT31;70114;47.690;8.898;2023-07-28T01:44:35;16.85;74.92
69208;SHT31;70114;47.690;8.898;2023-07-28T01:47:00;16.87;75.44
69208;SHT31;70114;47.690;8.898;2023-07-28T01:49:26;16.87;75.24
69208;SHT31;70114;47.690;8.898;2023-07-28T01:51:51;16.75;75.93
69208;SHT31;70114;47.690;8.898;2023-07-28T01:54:16;16.83;75.30
69208;SHT31;70114;47.690;8.898;2023-07-28T01:56:42;16.73;75.96
69208;SHT31;70114;47.690;8.898;2023-07-28T01:59:07;16.77;76.02
69208;SHT31;70114;47.690;8.898;2023-07-28T02:01:33;16.78;75.92
69208;SHT31;70114;47.690;8.898;2023-07-28T02:03:58;16.80;75.88
69208;SHT31;70114;47.690;8.898;2023-07-28T02:06:23;16.68;76.48
69208;SHT31;70114;47.690;8.898;2023-07-28T02:08:49;16.80;76.00
69208;SHT31;70114;47.690;8.898;2023-07-28T02:11:14;16.87;75.84
69208;SHT31;70114;47.690;8.898;2023-07-28T02:13:40;16.84;76.43
69208;SHT31;70114;47.690;8.898;2023-07-28T02:16:05;16.81;76.57
69208;SHT31;70114;47.690;8.898;2023-07-28T02:18:30;16.81;76.93
69208;SHT31;70114;47.690;8.898;2023-07-28T02:20:56;16.88;76.29
69208;SHT31;70114;47.690;8.898;2023-07-28T02:23:21;16.85;76.63
69208;SHT31;70114;47.690;8.898;2023-07-28T02:25:46;16.96;76.56
69208;SHT31;70114;47.690;8.898;2023-07-28T02:28:12;16.67;78.23
69208;SHT31;70114;47.690;8.898;2023-07-28T02:30:37;16.73;78.40
69208;SHT31;70114;47.690;8.898;2023-07-28T02:33:03;16.94;77.03
69208;SHT31;70114;47.690;8.898;2023-07-28T02:35:28;17.00;76.93
69208;SHT31;70114;47.690;8.898;2023-07-28T02:37:54;16.83;78.23
69208;SHT31;70114;47.690;8.898;2023-07-28T02:40:19;17.00;77.33
69208;SHT31;70114;47.690;8.898;2023-07-28T02:42:44;17.04;76.95
69208;SHT31;70114;47.690;8.898;2023-07-28T02:45:10;17.02;77.20
69208;SHT31;70114;47.690;8.898;2023-07-28T02:47:35;17.01;76.94
69208;SHT31;70114;47.690;8.898;2023-07-28T02:50:01;17.05;76.75
69208;SHT31;70114;47.690;8.898;2023-07-28T02:52:26;17.07;76.54
69208;SHT31;70114;47.690;8.898;2023-07-28T02:54:52;17.11;76.34
69208;SHT31;70114;47.690;8.898;2023-07-28T02:57:17;17.07;76.45
69208;SHT31;70114;47.690;8.898;2023-07-28T02:59:42;17.07;76.81
69208;SHT31;70114;47.690;8.898;2023-07-28T03:02:08;17.14;76.69
69208;SHT31;70114;47.690;8.898;2023-07-28T03:04:33;17.21;75.94
69208;SHT31;70114;47.690;8.898;2023-07-28T03:06:59;17.23;75.70
69208;SHT31;70114;47.690;8.898;2023-07-28T03:09:24;17.32;75.40
69208;SHT31;70114;47.690;8.898;2023-07-28T03:11:49;17.33;75.36
69208;SHT31;70114;47.690;8.898;2023-07-28T03:14:15;17.28;75.78
69208;SHT31;70114;47.690;8.898;2023-07-28T03:16:41;17.33;75.82
69208;SHT31;70114;47.690;8.898;2023-07-28T03:19:07;17.35;75.79
69208;SHT31;70114;47.690;8.898;2023-07-28T03:21:32;17.31;75.90
69208;SHT31;70114;47.690;8.898;2023-07-28T03:23:58;17.29;75.86
69208;SHT31;70114;47.690;8.898;2023-07-28T03:26:23;17.29;76.04
69208;SHT31;70114;47.690;8.898;2023-07-28T03:28:49;17.28;76.09
69208;SHT31;70114;47.690;8.898;2023-07-28T03:31:14;17.29;75.96
69208;SHT31;70114;47.690;8.898;2023-07-28T03:33:39;17.28;75.59
69208;SHT31;70114;47.690;8.898;2023-07-28T03:36:05;17.31;75.67
69208;SHT31;70114;47.690;8.898;2023-07-28T03:38:30;17.25;75.64
69208;SHT31;70114;47.690;8.898;2023-07-28T03:40:56;17.23;75.71
69208;SHT31;70114;47.690;8.898;2023-07-28T03:43:21;17.25;75.33
69208;SHT31;70114;47.690;8.898;2023-07-28T03:45:47;17.23;75.47
69208;SHT31;70114;47.690;8.898;2023-07-28T03:48:12;17.25;74.96
69208;SHT31;70114;47.690;8.898;2023-07-28T03:50:38;17.22;75.30
69208;SHT31;70114;47.690;8.898;2023-07-28T03:53:03;17.23;75.27
69208;SHT31;70114;47.690;8.898;2023-07-28T03:55:29;17.23;75.28
69208;SHT31;70114;47.690;8.898;2023-07-28T03:57:54;17.21;75.74
69208;SHT31;70114;47.690;8.898;2023-07-28T04:00:19;17.18;75.70
69208;SHT31;70114;47.690;8.898;2023-07-28T04:02:45;17.19;75.59
69208;SHT31;70114;47.690;8.898;2023-07-28T04:05:11;17.18;75.68
69208;SHT31;70114;47.690;8.898;2023-07-28T04:07:37;17.16;75.48
69208;SHT31;70114;47.690;8.898;2023-07-28T04:10:03;17.08;75.96
69208;SHT31;70114;47.690;8.898;2023-07-28T04:12:29;17.10;75.78
69208;SHT31;70114;47.690;8.898;2023-07-28T04:14:54;17.04;76.14
69208;SHT31;70114;47.690;8.898;2023-07-28T04:17:20;17.04;76.01
69208;SHT31;70114;47.690;8.898;2023-07-28T04:19:45;17.05;76.06
69208;SHT31;70114;47.690;8.898;2023-07-28T04:22:10;17.07;76.26
69208;SHT31;70114;47.690;8.898;2023-07-28T04:24:36;17.12;76.13
69208;SHT31;70114;47.690;8.898;2023-07-28T04:27:01;17.18;76.50
69208;SHT31;70114;47.690;8.898;2023-07-28T04:29:26;17.23;76.31
69208;SHT31;70114;47.690;8.898;2023-07-28T04:31:52;17.29;76.04
69208;SHT31;70114;47.690;8.898;2023-07-28T04:34:18;17.33;75.92
69208;SHT31;70114;47.690;8.898;2023-07-28T04:36:43;17.43;75.37
69208;SHT31;70114;47.690;8.898;2023-07-28T04:39:08;17.50;75.16
69208;SHT31;70114;47.690;8.898;2023-07-28T04:41:34;17.60;75.28
69208;SHT31;70114;47.690;8.898;2023-07-28T04:43:59;17.66;75.08
69208;SHT31;70114;47.690;8.898;2023-07-28T04:46:24;17.70;74.56
69208;SHT31;70114;47.690;8.898;2023-07-28T04:48:50;17.74;74.94
69208;SHT31;70114;47.690;8.898;2023-07-28T04:51:15;17.76;74.65
69208;SHT31;70114;47.690;8.898;2023-07-28T04:53:41;17.87;74.49
69208;SHT31;70114;47.690;8.898;2023-07-28T04:56:07;17.86;75.21
69208;SHT31;70114;47.690;8.898;2023-07-28T04:58:33;17.96;74.66
69208;SHT31;70114;47.690;8.898;2023-07-28T05:00:58;18.04;74.85
69208;SHT31;70114;47.690;8.898;2023-07-28T05:03:24;18.14;74.17
69208;SHT31;70114;47.690;8.898;2023-07-28T05:05:49;18.22;74.01
69208;SHT31;70114;47.690;8.898;2023-07-28T05:08:15;18.27;73.67
69208;SHT31;70114;47.690;8.898;2023-07-28T05:10:41;18.38;73.65
69208;SHT31;70114;47.690;8.898;2023-07-28T05:13:07;18.46;73.50
69208;SHT31;70114;47.690;8.898;2023-07-28T05:15:32;18.52;73.88
69208;SHT31;70114;47.690;8.898;2023-07-28T05:17:58;18.52;73.71
69208;SHT31;70114;47.690;8.898;2023-07-28T05:20:23;18.55;75.15
69208;SHT31;70114;47.690;8.898;2023-07-28T05:22:48;18.70;74.22
69208;SHT31;70114;47.690;8.898;2023-07-28T05:25:14;18.79;72.83
69208;SHT31;70114;47.690;8.898;2023-07-28T05:27:39;18.83;73.66
69208;SHT31;70114;47.690;8.898;2023-07-28T05:30:05;18.96;74.10
69208;SHT31;70114;47.690;8.898;2023-07-28T05:32:31;19.10;72.60
69208;SHT31;70114;47.690;8.898;2023-07-28T05:34:56;19.21;72.34
69208;SHT31;70114;47.690;8.898;2023-07-28T05:37:22;19.30;72.99
69208;SHT31;70114;47.690;8.898;2023-07-28T05:39:47;19.35;71.70
69208;SHT31;70114;47.690;8.898;2023-07-28T05:42:13;19.45;71.59
69208;SHT31;70114;47.690;8.898;2023-07-28T05:44:38;19.55;71.13
69208;SHT31;70114;47.690;8.898;2023-07-28T05:47:03;19.68;71.41
69208;SHT31;70114;47.690;8.898;2023-07-28T05:49:30;19.75;71.29
69208;SHT31;70114;47.690;8.898;2023-07-28T05:51:55;19.78;70.17
69208;SHT31;70114;47.690;8.898;2023-07-28T05:54:21;19.85;69.79
69208;SHT31;70114;47.690;8.898;2023-07-28T05:56:46;19.86;70.22
69208;SHT31;70114;47.690;8.898;2023-07-28T05:59:12;19.94;69.96
69208;SHT31;70114;47.690;8.898;2023-07-28T06:01:37;19.78;70.79
69208;SHT31;70114;47.690;8.898;2023-07-28T06:04:03;19.82;70.20
69208;SHT31;70114;47.690;8.898;2023-07-28T06:06:28;19.99;69.98
69208;SHT31;70114;47.690;8.898;2023-07-28T06:08:54;20.05;68.76
69208;SHT31;70114;47.690;8.898;2023-07-28T06:11:20;20.03;69.52
69208;SHT31;70114;47.690;8.898;2023-07-28T06:13:45;20.26;69.09
69208;SHT31;70114;47.690;8.898;2023-07-28T06:16:12;20.47;70.68
69208;SHT31;70114;47.690;8.898;2023-07-28T06:18:37;20.63;67.67
69208;SHT31;70114;47.690;8.898;2023-07-28T06:21:03;20.78;68.31
69208;SHT31;70114;47.690;8.898;2023-07-28T06:23:28;20.64;67.79
69208;SHT31;70114;47.690;8.898;2023-07-28T06:25:54;20.79;67.04
69208;SHT31;70114;47.690;8.898;2023-07-28T06:28:20;20.78;66.93
69208;SHT31;70114;47.690;8.898;2023-07-28T06:30:46;20.79;67.13
69208;SHT31;70114;47.690;8.898;2023-07-28T06:33:11;20.81;66.94
69208;SHT31;70114;47.690;8.898;2023-07-28T06:35:37;20.65;66.37
69208;SHT31;70114;47.690;8.898;2023-07-28T06:38:03;20.64;66.05
69208;SHT31;70114;47.690;8.898;2023-07-28T06:40:29;20.68;66.32
69208;SHT31;70114;47.690;8.898;2023-07-28T06:42:54;20.65;66.36
69208;SHT31;70114;47.690;8.898;2023-07-28T06:45:20;20.51;66.25
69208;SHT31;70114;47.690;8.898;2023-07-28T06:47:46;20.55;65.47
69208;SHT31;70114;47.690;8.898;2023-07-28T06:50:12;20.45;65.45
69208;SHT31;70114;47.690;8.898;2023-07-28T06:52:37;20.47;65.96
69208;SHT31;70114;47.690;8.898;2023-07-28T06:55:03;20.54;67.40
69208;SHT31;70114;47.690;8.898;2023-07-28T06:57:29;20.57;66.69
69208;SHT31;70114;47.690;8.898;2023-07-28T06:59:55;20.92;65.42
69208;SHT31;70114;47.690;8.898;2023-07-28T07:02:21;21.12;65.15
69208;SHT31;70114;47.690;8.898;2023-07-28T07:04:46;21.22;64.71
69208;SHT31;70114;47.690;8.898;2023-07-28T07:07:11;21.31;64.01
69208;SHT31;70114;47.690;8.898;2023-07-28T07:09:37;21.44;64.02
69208;SHT31;70114;47.690;8.898;2023-07-28T07:12:03;21.44;64.68
69208;SHT31;70114;47.690;8.898;2023-07-28T07:14:28;21.58;63.08
69208;SHT31;70114;47.690;8.898;2023-07-28T07:16:54;21.79;62.93
69208;SHT31;70114;47.690;8.898;2023-07-28T07:19:19;21.94;63.04
69208;SHT31;70114;47.690;8.898;2023-07-28T07:21:45;21.99;62.13
69208;SHT31;70114;47.690;8.898;2023-07-28T07:24:10;22.10;60.87
69208;SHT31;70114;47.690;8.898;2023-07-28T07:26:39;22.15;62.48
69208;SHT31;70114;47.690;8.898;2023-07-28T07:29:04;21.99;62.42
69208;SHT31;70114;47.690;8.898;2023-07-28T07:31:30;22.01;62.89
69208;SHT31;70114;47.690;8.898;2023-07-28T07:33:55;22.05;63.30
69208;SHT31;70114;47.690;8.898;2023-07-28T07:36:20;22.04;62.60
69208;SHT31;70114;47.690;8.898;2023-07-28T07:38:46;21.99;62.89
69208;SHT31;70114;47.690;8.898;2023-07-28T07:41:12;22.02;62.98
69208;SHT31;70114;47.690;8.898;2023-07-28T07:43:38;22.04;63.57
69208;SHT31;70114;47.690;8.898;2023-07-28T07:46:04;22.12;62.77
69208;SHT31;70114;47.690;8.898;2023-07-28T07:48:30;21.97;62.86
69208;SHT31;70114;47.690;8.898;2023-07-28T07:50:55;21.98;62.58
69208;SHT31;70114;47.690;8.898;2023-07-28T07:53:21;21.94;63.15
69208;SHT31;70114;47.690;8.898;2023-07-28T07:55:46;22.05;63.14
69208;SHT31;70114;47.690;8.898;2023-07-28T07:58:11;22.16;63.64
69208;SHT31;70114;47.690;8.898;2023-07-28T08:00:37;22.16;62.03
69208;SHT31;70114;47.690;8.898;2023-07-28T08:03:03;22.32;63.38
69208;SHT31;70114;47.690;8.898;2023-07-28T08:05:30;22.60;62.90
69208;SHT31;70114;47.690;8.898;2023-07-28T08:07:55;22.49;62.61
69208;SHT31;70114;47.690;8.898;2023-07-28T08:10:21;22.71;62.31
69208;SHT31;70114;47.690;8.898;2023-07-28T08:12:47;22.97;63.35
69208;SHT31;70114;47.690;8.898;2023-07-28T08:15:13;23.07;60.57
69208;SHT31;70114;47.690;8.898;2023-07-28T08:17:38;22.94;60.65
69208;SHT31;70114;47.690;8.898;2023-07-28T08:20:06;22.97;61.31
69208;SHT31;70114;47.690;8.898;2023-07-28T08:22:31;23.01;61.31
69208;SHT31;70114;47.690;8.898;2023-07-28T08:24:57;23.23;61.41
69208;SHT31;70114;47.690;8.898;2023-07-28T08:27:22;23.02;60.75
69208;SHT31;70114;47.690;8.898;2023-07-28T08:29:49;23.16;60.90
69208;SHT31;70114;47.690;8.898;2023-07-28T08:32:14;23.38;61.77
69208;SHT31;70114;47.690;8.898;2023-07-28T08:34:40;23.29;60.78
69208;SHT31;70114;47.690;8.898;2023-07-28T08:37:05;23.32;60.68
69208;SHT31;70114;47.690;8.898;2023-07-28T08:39:32;23.15;60.75
69208;SHT31;70114;47.690;8.898;2023-07-28T08:42:01;23.10;60.65
69208;SHT31;70114;47.690;8.898;2023-07-28T08:44:30;23.18;61.18
69208;SHT31;70114;47.690;8.898;2023-07-28T08:46:56;23.07;61.22
69208;SHT31;70114;47.690;8.898;2023-07-28T08:49:21;23.05;61.05
69208;SHT31;70114;47.690;8.898;2023-07-28T08:51:51;22.95;61.44
69208;SHT31;70114;47.690;8.898;2023-07-28T08:54:17;22.91;61.68
69208;SHT31;70114;47.690;8.898;2023-07-28T08:56:43;23.01;61.84
69208;SHT31;70114;47.690;8.898;2023-07-28T08:59:09;23.05;61.65
69208;SHT31;70114;47.690;8.898;2023-07-28T09:01:44;23.02;61.51
69208;SHT31;70114;47.690;8.898;2023-07-28T09:04:12;23.21;61.27
69208;SHT31;70114;47.690;8.898;2023-07-28T09:06:38;23.50;61.75
69208;SHT31;70114;47.690;8.898;2023-07-28T09:09:07;23.81;61.37
69208;SHT31;70114;47.690;8.898;2023-07-28T09:11:32;23.92;59.98
69208;SHT31;70114;47.690;8.898;2023-07-28T09:13:59;23.63;59.88
69208;SHT31;70114;47.690;8.898;2023-07-28T09:16:25;23.76;59.69
69208;SHT31;70114;47.690;8.898;2023-07-28T09:18:52;23.70;60.07
69208;SHT31;70114;47.690;8.898;2023-07-28T09:21:28;23.52;59.97
69208;SHT31;70114;47.690;8.898;2023-07-28T09:23:54;23.70;59.84
69208;SHT31;70114;47.690;8.898;2023-07-28T09:26:19;23.65;59.95
69208;SHT31;70114;47.690;8.898;2023-07-28T09:28:45;23.80;60.15
69208;SHT31;70114;47.690;8.898;2023-07-28T09:31:10;23.79;59.11
69208;SHT31;70114;47.690;8.898;2023-07-28T09:33:36;24.14;58.88
69208;SHT31;70114;47.690;8.898;2023-07-28T09:36:11;24.35;57.69
69208;SHT31;70114;47.690;8.898;2023-07-28T09:38:38;24.44;57.94
69208;SHT31;70114;47.690;8.898;2023-07-28T09:41:05;24.72;57.11
69208;SHT31;70114;47.690;8.898;2023-07-28T09:43:35;24.69;56.36
69208;SHT31;70114;47.690;8.898;2023-07-28T09:46:03;24.59;56.48
69208;SHT31;70114;47.690;8.898;2023-07-28T09:48:31;24.65;56.91
69208;SHT31;70114;47.690;8.898;2023-07-28T09:50:58;24.42;56.17
69208;SHT31;70114;47.690;8.898;2023-07-28T09:53:25;24.59;54.74
69208;SHT31;70114;47.690;8.898;2023-07-28T09:55:51;24.79;56.16
69208;SHT31;70114;47.690;8.898;2023-07-28T09:58:17;25.07;56.28
69208;SHT31;70114;47.690;8.898;2023-07-28T10:00:44;24.96;55.65
69208;SHT31;70114;47.690;8.898;2023-07-28T10:03:11;25.02;54.91
69208;SHT31;70114;47.690;8.898;2023-07-28T10:05:37;25.14;54.18
69208;SHT31;70114;47.690;8.898;2023-07-28T10:08:04;25.26;54.21
69208;SHT31;70114;47.690;8.898;2023-07-28T10:10:30;25.45;54.86
69208;SHT31;70114;47.690;8.898;2023-07-28T10:12:57;25.21;53.35
69208;SHT31;70114;47.690;8.898;2023-07-28T10:15:28;25.26;53.95
69208;SHT31;70114;47.690;8.898;2023-07-28T10:17:55;25.47;55.02
69208;SHT31;70114;47.690;8.898;2023-07-28T10:20:38;25.40;53.26
69208;SHT31;70114;47.690;8.898;2023-07-28T10:23:14;25.09;53.64
69208;SHT31;70114;47.690;8.898;2023-07-28T10:25:40;25.13;54.50
69208;SHT31;70114;47.690;8.898;2023-07-28T10:28:24;25.14;55.45
69208;SHT31;70114;47.690;8.898;2023-07-28T10:30:54;25.49;53.72
69208;SHT31;70114;47.690;8.898;2023-07-28T10:33:30;25.97;53.87
69208;SHT31;70114;47.690;8.898;2023-07-28T10:35:57;25.97;53.47
69208;SHT31;70114;47.690;8.898;2023-07-28T10:38:31;26.19;53.71
69208;SHT31;70114;47.690;8.898;2023-07-28T10:41:14;26.09;51.54
69208;SHT31;70114;47.690;8.898;2023-07-28T10:43:41;25.57;52.15
69208;SHT31;70114;47.690;8.898;2023-07-28T10:46:11;25.88;52.36
69208;SHT31;70114;47.690;8.898;2023-07-28T10:48:41;25.64;52.62
69208;SHT31;70114;47.690;8.898;2023-07-28T10:51:07;25.75;52.44
69208;SHT31;70114;47.690;8.898;2023-07-28T10:53:33;25.84;52.79
69208;SHT31;70114;47.690;8.898;2023-07-28T10:56:00;25.82;52.81
69208;SHT31;70114;47.690;8.898;2023-07-28T10:58:25;25.86;54.07
69208;SHT31;70114;47.690;8.898;2023-07-28T11:00:51;25.97;52.45
69208;SHT31;70114;47.690;8.898;2023-07-28T11:03:17;26.16;52.97
69208;SHT31;70114;47.690;8.898;2023-07-28T11:05:43;26.20;52.94
69208;SHT31;70114;47.690;8.898;2023-07-28T11:08:08;25.74;53.30
69208;SHT31;70114;47.690;8.898;2023-07-28T11:10:34;25.97;54.05
69208;SHT31;70114;47.690;8.898;2023-07-28T11:13:05;26.05;52.96
69208;SHT31;70114;47.690;8.898;2023-07-28T11:15:31;25.99;53.16
69208;SHT31;70114;47.690;8.898;2023-07-28T11:17:57;26.06;53.52
69208;SHT31;70114;47.690;8.898;2023-07-28T11:20:24;25.81;53.40
69208;SHT31;70114;47.690;8.898;2023-07-28T11:22:54;25.78;54.15
69208;SHT31;70114;47.690;8.898;2023-07-28T11:25:21;25.78;53.67
69208;SHT31;70114;47.690;8.898;2023-07-28T11:27:47;25.78;53.93
69208;SHT31;70114;47.690;8.898;2023-07-28T11:30:13;25.74;54.92
69208;SHT31;70114;47.690;8.898;2023-07-28T11:32:39;25.79;54.01
69208;SHT31;70114;47.690;8.898;2023-07-28T11:35:09;25.79;54.25
69208;SHT31;70114;47.690;8.898;2023-07-28T11:37:35;25.69;53.95
69208;SHT31;70114;47.690;8.898;2023-07-28T11:40:03;25.79;54.42
69208;SHT31;70114;47.690;8.898;2023-07-28T11:42:33;25.93;54.42
69208;SHT31;70114;47.690;8.898;2023-07-28T11:44:59;26.00;54.22
69208;SHT31;70114;47.690;8.898;2023-07-28T11:47:25;25.82;53.34
69208;SHT31;70114;47.690;8.898;2023-07-28T11:49:50;25.72;53.17
69208;SHT31;70114;47.690;8.898;2023-07-28T11:52:16;25.72;53.10
69208;SHT31;70114;47.690;8.898;2023-07-28T11:54:43;25.82;53.28
69208;SHT31;70114;47.690;8.898;2023-07-28T11:57:10;25.79;54.06
69208;SHT31;70114;47.690;8.898;2023-07-28T11:59:36;25.92;53.08
69208;SHT31;70114;47.690;8.898;2023-07-28T12:02:03;25.76;53.16
69208;SHT31;70114;47.690;8.898;2023-07-28T12:04:38;25.90;53.55
69208;SHT31;70114;47.690;8.898;2023-07-28T12:09:49;26.17;53.47
69208;SHT31;70114;47.690;8.898;2023-07-28T12:12:22;26.10;54.06
69208;SHT31;70114;47.690;8.898;2023-07-28T12:14:49;26.07;52.57
69208;SHT31;70114;47.690;8.898;2023-07-28T12:17:23;26.09;52.46
69208;SHT31;70114;47.690;8.898;2023-07-28T12:20:06;26.16;52.00
69208;SHT31;70114;47.690;8.898;2023-07-28T12:22:41;26.05;51.99
69208;SHT31;70114;47.690;8.898;2023-07-28T12:25:07;26.39;52.72
69208;SHT31;70114;47.690;8.898;2023-07-28T12:27:33;26.48;51.51
69208;SHT31;70114;47.690;8.898;2023-07-28T12:29:59;26.63;51.05
69208;SHT31;70114;47.690;8.898;2023-07-28T12:32:25;26.72;51.69
69208;SHT31;70114;47.690;8.898;2023-07-28T12:34:51;26.77;50.30
69208;SHT31;70114;47.690;8.898;2023-07-28T12:37:17;26.81;50.33
69208;SHT31;70114;47.690;8.898;2023-07-28T12:39:43;26.90;50.21
69208;SHT31;70114;47.690;8.898;2023-07-28T12:42:10;26.70;49.71
69208;SHT31;70114;47.690;8.898;2023-07-28T12:44:36;26.51;50.85
69208;SHT31;70114;47.690;8.898;2023-07-28T12:47:02;26.40;50.67
69208;SHT31;70114;47.690;8.898;2023-07-28T12:49:29;26.10;51.69
69208;SHT31;70114;47.690;8.898;2023-07-28T12:51:55;26.15;51.68
69208;SHT31;70114;47.690;8.898;2023-07-28T12:54:22;26.02;51.98
69208;SHT31;70114;47.690;8.898;2023-07-28T12:56:47;26.03;51.44
69208;SHT31;70114;47.690;8.898;2023-07-28T12:59:14;26.23;52.21
69208;SHT31;70114;47.690;8.898;2023-07-28T13:01:39;26.22;52.09
69208;SHT31;70114;47.690;8.898;2023-07-28T13:04:04;26.51;52.17
69208;SHT31;70114;47.690;8.898;2023-07-28T13:06:30;26.58;52.32
69208;SHT31;70114;47.690;8.898;2023-07-28T13:08:55;26.44;51.14
69208;SHT31;70114;47.690;8.898;2023-07-28T13:11:20;26.68;51.36
69208;SHT31;70114;47.690;8.898;2023-07-28T13:13:46;26.72;51.83
69208;SHT31;70114;47.690;8.898;2023-07-28T13:16:11;26.60;51.70
69208;SHT31;70114;47.690;8.898;2023-07-28T13:18:36;26.43;50.94
69208;SHT31;70114;47.690;8.898;2023-07-28T13:21:02;26.24;51.52
69208;SHT31;70114;47.690;8.898;2023-07-28T13:23:27;26.13;52.08
69208;SHT31;70114;47.690;8.898;2023-07-28T13:25:53;26.26;50.93
69208;SHT31;70114;47.690;8.898;2023-07-28T13:28:18;26.54;50.83
69208;SHT31;70114;47.690;8.898;2023-07-28T13:30:44;26.58;51.23
69208;SHT31;70114;47.690;8.898;2023-07-28T13:33:09;26.57;50.82
69208;SHT31;70114;47.690;8.898;2023-07-28T13:35:34;26.54;51.62
69208;SHT31;70114;47.690;8.898;2023-07-28T13:38:00;26.68;50.96
69208;SHT31;70114;47.690;8.898;2023-07-28T13:40:25;26.87;49.84
69208;SHT31;70114;47.690;8.898;2023-07-28T13:42:50;26.90;49.87
69208;SHT31;70114;47.690;8.898;2023-07-28T13:45:16;26.88;50.33
69208;SHT31;70114;47.690;8.898;2023-07-28T13:47:41;26.71;50.30
69208;SHT31;70114;47.690;8.898;2023-07-28T13:50:07;26.68;50.99
69208;SHT31;70114;47.690;8.898;2023-07-28T13:52:32;26.61;51.35
69208;SHT31;70114;47.690;8.898;2023-07-28T13:54:58;26.58;51.45
69208;SHT31;70114;47.690;8.898;2023-07-28T13:57:23;26.51;51.24
69208;SHT31;70114;47.690;8.898;2023-07-28T13:59:49;26.54;52.00
69208;SHT31;70114;47.690;8.898;2023-07-28T14:02:16;26.53;51.78
69208;SHT31;70114;47.690;8.898;2023-07-28T14:04:42;26.54;51.99
69208;SHT31;70114;47.690;8.898;2023-07-28T14:07:07;26.77;51.17
69208;SHT31;70114;47.690;8.898;2023-07-28T14:09:33;26.84;50.82
69208;SHT31;70114;47.690;8.898;2023-07-28T14:11:59;27.22;49.72
69208;SHT31;70114;47.690;8.898;2023-07-28T14:14:24;27.08;49.95
69208;SHT31;70114;47.690;8.898;2023-07-28T14:16:49;27.12;50.08
69208;SHT31;70114;47.690;8.898;2023-07-28T14:19:15;27.01;50.38
69208;SHT31;70114;47.690;8.898;2023-07-28T14:21:40;26.94;50.86
69208;SHT31;70114;47.690;8.898;2023-07-28T14:24:06;26.82;51.09
69208;SHT31;70114;47.690;8.898;2023-07-28T14:26:31;26.63;51.16
69208;SHT31;70114;47.690;8.898;2023-07-28T14:28:56;26.44;51.40
69208;SHT31;70114;47.690;8.898;2023-07-28T14:31:22;26.37;51.63
69208;SHT31;70114;47.690;8.898;2023-07-28T14:33:47;26.00;51.82
69208;SHT31;70114;47.690;8.898;2023-07-28T14:36:13;25.78;53.10
69208;SHT31;70114;47.690;8.898;2023-07-28T14:38:38;25.69;53.44
69208;SHT31;70114;47.690;8.898;2023-07-28T14:41:04;25.62;53.65
69208;SHT31;70114;47.690;8.898;2023-07-28T14:43:29;25.61;54.35
69208;SHT31;70114;47.690;8.898;2023-07-28T14:45:55;25.55;54.01
69208;SHT31;70114;47.690;8.898;2023-07-28T14:48:20;25.52;54.41
69208;SHT31;70114;47.690;8.898;2023-07-28T14:50:46;25.42;54.64
69208;SHT31;70114;47.690;8.898;2023-07-28T14:53:29;25.38;55.02
69208;SHT31;70114;47.690;8.898;2023-07-28T14:55:55;25.20;55.34
69208;SHT31;70114;47.690;8.898;2023-07-28T14:58:20;25.16;55.62
69208;SHT31;70114;47.690;8.898;2023-07-28T15:00:46;24.96;56.39
69208;SHT31;70114;47.690;8.898;2023-07-28T15:03:11;24.86;57.05
69208;SHT31;70114;47.690;8.898;2023-07-28T15:05:37;24.72;57.91
69208;SHT31;70114;47.690;8.898;2023-07-28T15:08:02;24.20;59.91
69208;SHT31;70114;47.690;8.898;2023-07-28T15:11:05;23.93;62.26
69208;SHT31;70114;47.690;8.898;2023-07-28T15:13:31;23.70;62.54
69208;SHT31;70114;47.690;8.898;2023-07-28T15:15:56;23.19;61.94
69208;SHT31;70114;47.690;8.898;2023-07-28T15:18:22;22.95;62.27
69208;SHT31;70114;47.690;8.898;2023-07-28T15:20:47;22.75;63.51
69208;SHT31;70114;47.690;8.898;2023-07-28T15:23:12;22.37;64.86
69208;SHT31;70114;47.690;8.898;2023-07-28T15:25:38;22.09;66.06
69208;SHT31;70114;47.690;8.898;2023-07-28T15:28:09;21.92;67.90
69208;SHT31;70114;47.690;8.898;2023-07-28T15:30:34;21.84;68.14
69208;SHT31;70114;47.690;8.898;2023-07-28T15:32:59;21.65;69.45
69208;SHT31;70114;47.690;8.898;2023-07-28T15:35:25;21.73;69.86